sensor_id;sensor_type;location;lat;lon;timestamp;temperature;humidity
46400;DHT22;32104;50.838;4.388;2022-11-15T00:00:18;12.90;99.90
46400;DHT22;32104;50.838;4.388;2022-11-15T00:02:44;13.00;99.90
46400;DHT22;32104;50.838;4.388;2022-11-15T00:05:09;12.90;99.90
46400;DHT22;32104;50.838;4.388;2022-11-15T00:07:35;12.90;99.90
46400;DHT22;32104;50.838;4.388;2022-11-15T00:10:01;13.00;99.90
46400;DHT22;32104;50.838;4.388;2022-11-15T00:12:27;13.10;99.90
46400;DHT22;32104;50.838;4.388;2022-11-15T00:14:54;13.10;99.90
46400;DHT22;32104;50.838;4.388;2022-11-15T00:17:19;13.10;99.90
46400;DHT22;32104;50.838;4.388;2022-11-15T00:19:46;13.20;99.90
46400;DHT22;32104;50.838;4.388;2022-11-15T00:22:12;13.00;99.90
46400;DHT22;32104;50.838;4.388;2022-11-15T00:24:37;12.90;99.90
46400;DHT22;32104;50.838;4.388;2022-11-15T00:27:03;13.10;99.90
46400;DHT22;32104;50.838;4.388;2022-11-15T00:29:28;13.10;99.90
46400;DHT22;32104;50.838;4.388;2022-11-15T00:31:54;13.10;99.90
46400;DHT22;32104;50.838;4.388;2022-11-15T00:34:19;13.10;99.90
46400;DHT22;32104;50.838;4.388;2022-11-15T00:36:45;13.00;99.90
46400;DHT22;32104;50.838;4.388;2022-11-15T00:39:11;13.10;99.90
46400;DHT22;32104;50.838;4.388;2022-11-15T00:41:36;13.20;99.90
46400;DHT22;32104;50.838;4.388;2022-11-15T00:44:02;13.20;99.90
46400;DHT22;32104;50.838;4.388;2022-11-15T00:46:28;13.10;99.90
46400;DHT22;32104;50.838;4.388;2022-11-15T00:48:54;13.10;99.90
46400;DHT22;32104;50.838;4.388;2022-11-15T00:51:19;13.10;99.90
46400;DHT22;32104;50.838;4.388;2022-11-15T00:53:45;13.20;99.90
46400;DHT22;32104;50.838;4.388;2022-11-15T00:56:11;13.20;99.90
46400;DHT22;32104;50.838;4.388;2022-11-15T00:58:36;13.30;99.90
46400;DHT22;32104;50.838;4.388;2022-11-15T01:01:09;13.30;99.90
46400;DHT22;32104;50.838;4.388;2022-11-15T01:03:36;13.30;99.90
46400;DHT22;32104;50.838;4.388;2022-11-15T01:06:02;13.30;99.90
46400;DHT22;32104;50.838;4.388;2022-11-15T01:08:28;13.20;99.90
46400;DHT22;32104;50.838;4.388;2022-11-15T01:10:53;13.20;99.90
46400;DHT22;32104;50.838;4.388;2022-11-15T01:13:19;13.30;99.90
46400;DHT22;32104;50.838;4.388;2022-11-15T01:15:44;13.30;99.90
46400;DHT22;32104;50.838;4.388;2022-11-15T01:18:10;13.30;99.90
46400;DHT22;32104;50.838;4.388;2022-11-15T01:20:40;13.30;99.90
46400;DHT22;32104;50.838;4.388;2022-11-15T01:23:06;13.20;99.90
46400;DHT22;32104;50.838;4.388;2022-11-15T01:25:31;13.20;99.90
46400;DHT22;32104;50.838;4.388;2022-11-15T01:27:57;13.10;99.90
46400;DHT22;32104;50.838;4.388;2022-11-15T01:30:22;13.20;99.90
46400;DHT22;32104;50.838;4.388;2022-11-15T01:32:48;13.10;99.90
46400;DHT22;32104;50.838;4.388;2022-11-15T01:35:13;13.20;99.90
46400;DHT22;32104;50.838;4.388;2022-11-15T01:37:39;13.20;99.90
46400;DHT22;32104;50.838;4.388;2022-11-15T01:40:04;13.20;99.90
46400;DHT22;32104;50.838;4.388;2022-11-15T01:42:30;13.10;99.90
46400;DHT22;32104;50.838;4.388;2022-11-15T01:44:55;13.10;99.90
46400;DHT22;32104;50.838;4.388;2022-11-15T01:47:23;13.20;99.90
46400;DHT22;32104;50.838;4.388;2022-11-15T01:52:22;13.10;99.90
46400;DHT22;32104;50.838;4.388;2022-11-15T01:54:53;13.20;99.90
46400;DHT22;32104;50.838;4.388;2022-11-15T01:57:19;13.10;99.90
46400;DHT22;32104;50.838;4.388;2022-11-15T01:59:44;13.20;99.90
46400;DHT22;32104;50.838;4.388;2022-11-15T02:02:12;13.30;99.90
46400;DHT22;32104;50.838;4.388;2022-11-15T02:04:43;13.20;99.90
46400;DHT22;32104;50.838;4.388;2022-11-15T02:07:11;13.40;99.90
46400;DHT22;32104;50.838;4.388;2022-11-15T02:09:37;13.30;99.90
46400;DHT22;32104;50.838;4.388;2022-11-15T02:12:03;13.30;99.90
46400;DHT22;32104;50.838;4.388;2022-11-15T02:14:31;13.20;99.90
46400;DHT22;32104;50.838;4.388;2022-11-15T02:22:05;13.00;99.90
46400;DHT22;32104;50.838;4.388;2022-11-15T02:35:30;13.00;99.90
46400;DHT22;32104;50.838;4.388;2022-11-15T02:38:05;13.00;99.90
46400;DHT22;32104;50.838;4.388;2022-11-15T02:40:53;12.90;99.90
46400;DHT22;32104;50.838;4.388;2022-11-15T02:43:39;12.90;99.90
46400;DHT22;32104;50.838;4.388;2022-11-15T02:46:33;12.90;99.90
46400;DHT22;32104;50.838;4.388;2022-11-15T02:49:19;13.00;99.90
46400;DHT22;32104;50.838;4.388;2022-11-15T02:51:45;13.10;99.90
46400;DHT22;32104;50.838;4.388;2022-11-15T02:54:14;13.10;99.90
46400;DHT22;32104;50.838;4.388;2022-11-15T02:56:40;13.00;99.90
46400;DHT22;32104;50.838;4.388;2022-11-15T02:59:50;13.10;99.90
46400;DHT22;32104;50.838;4.388;2022-11-15T03:06:58;13.10;99.90
46400;DHT22;32104;50.838;4.388;2022-11-15T03:09:40;13.10;99.90
46400;DHT22;32104;50.838;4.388;2022-11-15T03:14:56;13.10;99.90
46400;DHT22;32104;50.838;4.388;2022-11-15T03:17:29;13.10;99.90
46400;DHT22;32104;50.838;4.388;2022-11-15T03:19:56;13.10;99.90
46400;DHT22;32104;50.838;4.388;2022-11-15T03:22:23;13.20;99.90
46400;DHT22;32104;50.838;4.388;2022-11-15T03:24:51;13.10;99.90
46400;DHT22;32104;50.838;4.388;2022-11-15T03:27:19;13.00;99.90
46400;DHT22;32104;50.838;4.388;2022-11-15T03:29:56;13.00;99.90
46400;DHT22;32104;50.838;4.388;2022-11-15T03:32:23;13.00;99.90
46400;DHT22;32104;50.838;4.388;2022-11-15T03:34:52;13.00;99.90
46400;DHT22;32104;50.838;4.388;2022-11-15T03:37:20;13.10;99.90
46400;DHT22;32104;50.838;4.388;2022-11-15T03:39:46;13.00;99.90
46400;DHT22;32104;50.838;4.388;2022-11-15T03:42:46;12.90;99.90
46400;DHT22;32104;50.838;4.388;2022-11-15T03:45:20;12.80;99.90
46400;DHT22;32104;50.838;4.388;2022-11-15T03:50:32;13.00;99.90
46400;DHT22;32104;50.838;4.388;2022-11-15T03:52:57;12.90;99.90
46400;DHT22;32104;50.838;4.388;2022-11-15T03:55:24;12.90;99.90
46400;DHT22;32104;50.838;4.388;2022-11-15T03:57:51;12.80;99.90
46400;DHT22;32104;50.838;4.388;2022-11-15T04:00:17;12.90;99.90
46400;DHT22;32104;50.838;4.388;2022-11-15T04:02:43;12.90;99.90
46400;DHT22;32104;50.838;4.388;2022-11-15T04:05:09;13.00;99.90
46400;DHT22;32104;50.838;4.388;2022-11-15T04:07:35;12.90;99.90
46400;DHT22;32104;50.838;4.388;2022-11-15T04:10:01;12.90;99.90
46400;DHT22;32104;50.838;4.388;2022-11-15T04:12:35;12.90;99.90
46400;DHT22;32104;50.838;4.388;2022-11-15T04:15:04;12.80;99.90
46400;DHT22;32104;50.838;4.388;2022-11-15T04:17:54;12.80;99.90
46400;DHT22;32104;50.838;4.388;2022-11-15T04:20:26;12.80;99.90
46400;DHT22;32104;50.838;4.388;2022-11-15T04:23:20;12.90;99.90
46400;DHT22;32104;50.838;4.388;2022-11-15T04:26:06;12.80;99.90
46400;DHT22;32104;50.838;4.388;2022-11-15T04:28:33;12.80;99.90
46400;DHT22;32104;50.838;4.388;2022-11-15T04:30:58;12.70;99.90
46400;DHT22;32104;50.838;4.388;2022-11-15T04:33:24;12.70;99.90
46400;DHT22;32104;50.838;4.388;2022-11-15T04:35:50;12.70;99.90
46400;DHT22;32104;50.838;4.388;2022-11-15T04:38:35;12.60;99.90
46400;DHT22;32104;50.838;4.388;2022-11-15T04:41:01;12.70;99.90
46400;DHT22;32104;50.838;4.388;2022-11-15T04:43:27;12.60;99.90
46400;DHT22;32104;50.838;4.388;2022-11-15T04:45:53;12.50;99.90
46400;DHT22;32104;50.838;4.388;2022-11-15T04:48:19;12.60;99.90
46400;DHT22;32104;50.838;4.388;2022-11-15T04:50:44;12.70;99.90
46400;DHT22;32104;50.838;4.388;2022-11-15T04:53:12;12.50;99.90
46400;DHT22;32104;50.838;4.388;2022-11-15T04:55:38;12.40;99.90
46400;DHT22;32104;50.838;4.388;2022-11-15T04:58:03;12.30;99.90
46400;DHT22;32104;50.838;4.388;2022-11-15T05:00:29;12.30;99.90
46400;DHT22;32104;50.838;4.388;2022-11-15T05:02:58;12.30;99.90
46400;DHT22;32104;50.838;4.388;2022-11-15T05:05:42;12.40;99.90
46400;DHT22;32104;50.838;4.388;2022-11-15T05:08:08;12.40;99.90
46400;DHT22;32104;50.838;4.388;2022-11-15T05:10:33;12.30;99.90
46400;DHT22;32104;50.838;4.388;2022-11-15T05:12:59;12.20;99.90
46400;DHT22;32104;50.838;4.388;2022-11-15T05:15:24;12.20;99.90
46400;DHT22;32104;50.838;4.388;2022-11-15T05:17:50;12.20;99.90
46400;DHT22;32104;50.838;4.388;2022-11-15T05:20:16;12.20;99.90
46400;DHT22;32104;50.838;4.388;2022-11-15T05:22:41;12.20;99.90
46400;DHT22;32104;50.838;4.388;2022-11-15T05:25:07;12.10;99.90
46400;DHT22;32104;50.838;4.388;2022-11-15T05:27:33;12.30;99.90
46400;DHT22;32104;50.838;4.388;2022-11-15T05:29:59;12.20;99.90
46400;DHT22;32104;50.838;4.388;2022-11-15T05:32:24;12.00;99.90
46400;DHT22;32104;50.838;4.388;2022-11-15T05:34:50;11.80;99.90
46400;DHT22;32104;50.838;4.388;2022-11-15T05:37:16;11.80;99.90
46400;DHT22;32104;50.838;4.388;2022-11-15T05:39:43;11.90;99.90
46400;DHT22;32104;50.838;4.388;2022-11-15T05:42:12;11.90;99.90
46400;DHT22;32104;50.838;4.388;2022-11-15T05:44:39;11.80;99.90
46400;DHT22;32104;50.838;4.388;2022-11-15T05:47:06;11.70;99.90
46400;DHT22;32104;50.838;4.388;2022-11-15T05:49:33;11.60;99.90
46400;DHT22;32104;50.838;4.388;2022-11-15T05:52:02;11.50;99.90
46400;DHT22;32104;50.838;4.388;2022-11-15T05:54:28;11.50;99.90
46400;DHT22;32104;50.838;4.388;2022-11-15T05:56:55;11.50;99.90
46400;DHT22;32104;50.838;4.388;2022-11-15T05:59:21;11.60;99.90
46400;DHT22;32104;50.838;4.388;2022-11-15T06:01:46;11.60;99.90
46400;DHT22;32104;50.838;4.388;2022-11-15T06:04:18;11.70;99.90
46400;DHT22;32104;50.838;4.388;2022-11-15T06:06:47;11.70;99.90
46400;DHT22;32104;50.838;4.388;2022-11-15T06:09:13;11.60;99.90
46400;DHT22;32104;50.838;4.388;2022-11-15T06:11:38;11.50;99.90
46400;DHT22;32104;50.838;4.388;2022-11-15T06:14:04;11.50;99.90
46400;DHT22;32104;50.838;4.388;2022-11-15T06:16:30;11.50;99.90
46400;DHT22;32104;50.838;4.388;2022-11-15T06:18:55;11.40;99.90
46400;DHT22;32104;50.838;4.388;2022-11-15T06:21:21;11.10;99.90
46400;DHT22;32104;50.838;4.388;2022-11-15T06:23:47;11.20;99.90
46400;DHT22;32104;50.838;4.388;2022-11-15T06:26:15;11.30;99.90
46400;DHT22;32104;50.838;4.388;2022-11-15T06:28:40;11.40;99.90
46400;DHT22;32104;50.838;4.388;2022-11-15T06:31:07;11.30;99.90
46400;DHT22;32104;50.838;4.388;2022-11-15T06:33:34;11.20;99.90
46400;DHT22;32104;50.838;4.388;2022-11-15T06:36:00;11.10;99.90
46400;DHT22;32104;50.838;4.388;2022-11-15T06:38:35;11.10;99.90
46400;DHT22;32104;50.838;4.388;2022-11-15T06:41:04;11.10;99.90
46400;DHT22;32104;50.838;4.388;2022-11-15T06:43:30;11.00;99.90
46400;DHT22;32104;50.838;4.388;2022-11-15T06:46:00;11.10;99.90
46400;DHT22;32104;50.838;4.388;2022-11-15T06:48:26;11.10;99.90
46400;DHT22;32104;50.838;4.388;2022-11-15T06:50:55;11.10;99.90
46400;DHT22;32104;50.838;4.388;2022-11-15T06:53:21;11.20;99.90
46400;DHT22;32104;50.838;4.388;2022-11-15T06:55:59;11.30;99.90
46400;DHT22;32104;50.838;4.388;2022-11-15T06:58:25;11.30;99.90
46400;DHT22;32104;50.838;4.388;2022-11-15T07:00:57;11.20;99.90
46400;DHT22;32104;50.838;4.388;2022-11-15T07:03:23;11.00;99.90
46400;DHT22;32104;50.838;4.388;2022-11-15T07:05:53;11.00;99.90
46400;DHT22;32104;50.838;4.388;2022-11-15T07:08:20;10.90;99.90
46400;DHT22;32104;50.838;4.388;2022-11-15T07:10:45;11.00;99.90
46400;DHT22;32104;50.838;4.388;2022-11-15T07:13:11;11.00;99.90
46400;DHT22;32104;50.838;4.388;2022-11-15T07:15:37;10.90;99.90
46400;DHT22;32104;50.838;4.388;2022-11-15T07:18:02;10.80;99.90
46400;DHT22;32104;50.838;4.388;2022-11-15T07:20:28;10.60;99.90
46400;DHT22;32104;50.838;4.388;2022-11-15T07:23:03;10.80;99.90
46400;DHT22;32104;50.838;4.388;2022-11-15T07:25:29;10.80;99.90
46400;DHT22;32104;50.838;4.388;2022-11-15T07:30:30;11.20;99.90
46400;DHT22;32104;50.838;4.388;2022-11-15T07:32:56;11.20;99.90
46400;DHT22;32104;50.838;4.388;2022-11-15T07:35:22;11.00;99.90
46400;DHT22;32104;50.838;4.388;2022-11-15T07:40:35;11.20;99.90
46400;DHT22;32104;50.838;4.388;2022-11-15T07:43:02;11.10;99.90
46400;DHT22;32104;50.838;4.388;2022-11-15T07:45:28;10.90;99.90
46400;DHT22;32104;50.838;4.388;2022-11-15T07:47:54;10.70;99.90
46400;DHT22;32104;50.838;4.388;2022-11-15T07:50:21;10.70;99.90
46400;DHT22;32104;50.838;4.388;2022-11-15T07:52:47;10.90;99.90
46400;DHT22;32104;50.838;4.388;2022-11-15T07:55:12;10.90;99.90
46400;DHT22;32104;50.838;4.388;2022-11-15T07:57:38;10.80;99.90
46400;DHT22;32104;50.838;4.388;2022-11-15T08:00:05;10.70;99.90
46400;DHT22;32104;50.838;4.388;2022-11-15T08:02:31;10.80;99.90
46400;DHT22;32104;50.838;4.388;2022-11-15T08:04:57;10.90;99.90
46400;DHT22;32104;50.838;4.388;2022-11-15T08:07:22;10.80;99.90
46400;DHT22;32104;50.838;4.388;2022-11-15T08:09:48;10.80;99.90
46400;DHT22;32104;50.838;4.388;2022-11-15T08:12:14;10.80;99.90
46400;DHT22;32104;50.838;4.388;2022-11-15T08:14:40;10.80;99.90
46400;DHT22;32104;50.838;4.388;2022-11-15T08:17:05;10.70;99.90
46400;DHT22;32104;50.838;4.388;2022-11-15T08:19:31;10.80;99.90
46400;DHT22;32104;50.838;4.388;2022-11-15T08:21:56;10.90;99.90
46400;DHT22;32104;50.838;4.388;2022-11-15T08:24:22;10.90;99.90
46400;DHT22;32104;50.838;4.388;2022-11-15T08:26:47;10.90;99.90
46400;DHT22;32104;50.838;4.388;2022-11-15T08:29:13;10.90;99.90
46400;DHT22;32104;50.838;4.388;2022-11-15T08:31:39;10.80;99.90
46400;DHT22;32104;50.838;4.388;2022-11-15T08:34:08;10.90;99.90
46400;DHT22;32104;50.838;4.388;2022-11-15T08:36:34;10.90;99.90
46400;DHT22;32104;50.838;4.388;2022-11-15T08:39:01;11.00;99.90
46400;DHT22;32104;50.838;4.388;2022-11-15T08:43:52;10.90;99.90
46400;DHT22;32104;50.838;4.388;2022-11-15T08:46:18;11.10;99.90
46400;DHT22;32104;50.838;4.388;2022-11-15T08:48:44;11.30;99.90
46400;DHT22;32104;50.838;4.388;2022-11-15T08:51:10;11.60;99.90
46400;DHT22;32104;50.838;4.388;2022-11-15T08:53:36;11.50;99.90
46400;DHT22;32104;50.838;4.388;2022-11-15T08:56:01;11.50;99.90
46400;DHT22;32104;50.838;4.388;2022-11-15T08:58:28;11.40;99.90
46400;DHT22;32104;50.838;4.388;2022-11-15T09:00:53;11.20;99.90
46400;DHT22;32104;50.838;4.388;2022-11-15T09:03:22;11.20;99.90
46400;DHT22;32104;50.838;4.388;2022-11-15T09:05:47;11.20;99.90
46400;DHT22;32104;50.838;4.388;2022-11-15T09:08:14;11.30;99.90
46400;DHT22;32104;50.838;4.388;2022-11-15T09:10:40;11.40;99.90
46400;DHT22;32104;50.838;4.388;2022-11-15T09:13:05;11.30;99.90
46400;DHT22;32104;50.838;4.388;2022-11-15T09:15:31;11.50;99.90
46400;DHT22;32104;50.838;4.388;2022-11-15T09:18:01;11.50;99.90
46400;DHT22;32104;50.838;4.388;2022-11-15T09:20:27;11.60;99.90
46400;DHT22;32104;50.838;4.388;2022-11-15T09:22:52;11.40;99.90
46400;DHT22;32104;50.838;4.388;2022-11-15T09:25:18;11.30;99.90
46400;DHT22;32104;50.838;4.388;2022-11-15T09:27:43;11.30;99.90
46400;DHT22;32104;50.838;4.388;2022-11-15T09:30:09;11.50;99.90
46400;DHT22;32104;50.838;4.388;2022-11-15T09:32:35;11.60;99.90
46400;DHT22;32104;50.838;4.388;2022-11-15T09:35:00;11.60;99.90
46400;DHT22;32104;50.838;4.388;2022-11-15T09:37:26;11.50;99.90
46400;DHT22;32104;50.838;4.388;2022-11-15T09:39:52;11.60;99.90
46400;DHT22;32104;50.838;4.388;2022-11-15T09:42:22;11.80;99.90
46400;DHT22;32104;50.838;4.388;2022-11-15T09:50:27;12.00;99.90
46400;DHT22;32104;50.838;4.388;2022-11-15T09:52:54;12.20;99.90
46400;DHT22;32104;50.838;4.388;2022-11-15T09:55:20;12.30;99.90
46400;DHT22;32104;50.838;4.388;2022-11-15T09:57:54;12.30;99.90
46400;DHT22;32104;50.838;4.388;2022-11-15T10:00:34;12.50;99.90
46400;DHT22;32104;50.838;4.388;2022-11-15T10:05:47;12.50;99.90
46400;DHT22;32104;50.838;4.388;2022-11-15T10:10:39;12.70;99.90
46400;DHT22;32104;50.838;4.388;2022-11-15T10:13:25;12.50;99.90
46400;DHT22;32104;50.838;4.388;2022-11-15T10:15:53;12.50;99.90
46400;DHT22;32104;50.838;4.388;2022-11-15T10:20:58;12.50;99.90
46400;DHT22;32104;50.838;4.388;2022-11-15T10:23:24;12.50;99.90
46400;DHT22;32104;50.838;4.388;2022-11-15T10:25:54;12.30;99.90
46400;DHT22;32104;50.838;4.388;2022-11-15T10:28:21;12.60;99.90
46400;DHT22;32104;50.838;4.388;2022-11-15T10:30:49;12.70;99.90
46400;DHT22;32104;50.838;4.388;2022-11-15T10:33:24;12.90;99.90
46400;DHT22;32104;50.838;4.388;2022-11-15T10:36:32;12.90;99.90
46400;DHT22;32104;50.838;4.388;2022-11-15T10:46:37;12.80;99.90
46400;DHT22;32104;50.838;4.388;2022-11-15T10:52:21;12.90;99.90
46400;DHT22;32104;50.838;4.388;2022-11-15T10:57:23;12.80;99.90
46400;DHT22;32104;50.838;4.388;2022-11-15T10:59:56;13.10;99.90
46400;DHT22;32104;50.838;4.388;2022-11-15T11:02:30;13.10;99.90
46400;DHT22;32104;50.838;4.388;2022-11-15T11:04:56;13.20;99.90
46400;DHT22;32104;50.838;4.388;2022-11-15T11:07:23;13.30;99.90
46400;DHT22;32104;50.838;4.388;2022-11-15T11:10:17;13.20;99.90
46400;DHT22;32104;50.838;4.388;2022-11-15T11:12:35;13.10;99.90
46400;DHT22;32104;50.838;4.388;2022-11-15T11:15:05;13.30;99.90
46400;DHT22;32104;50.838;4.388;2022-11-15T11:20:20;13.30;99.90
46400;DHT22;32104;50.838;4.388;2022-11-15T11:23:03;13.20;99.90
46400;DHT22;32104;50.838;4.388;2022-11-15T11:33:12;13.80;99.90
46400;DHT22;32104;50.838;4.388;2022-11-15T11:35:50;13.80;99.90
46400;DHT22;32104;50.838;4.388;2022-11-15T11:51:23;14.00;99.90
46400;DHT22;32104;50.838;4.388;2022-11-15T11:53:52;13.70;99.90
46400;DHT22;32104;50.838;4.388;2022-11-15T11:56:22;13.70;99.90
46400;DHT22;32104;50.838;4.388;2022-11-15T11:58:48;13.90;99.90
46400;DHT22;32104;50.838;4.388;2022-11-15T12:01:17;13.80;99.90
46400;DHT22;32104;50.838;4.388;2022-11-15T12:06:44;14.20;99.90
46400;DHT22;32104;50.838;4.388;2022-11-15T12:11:47;14.10;99.90
46400;DHT22;32104;50.838;4.388;2022-11-15T12:14:24;14.10;99.90
46400;DHT22;32104;50.838;4.388;2022-11-15T12:16:50;14.20;99.90
46400;DHT22;32104;50.838;4.388;2022-11-15T12:19:16;14.10;99.90
46400;DHT22;32104;50.838;4.388;2022-11-15T12:24:33;14.10;99.90
46400;DHT22;32104;50.838;4.388;2022-11-15T12:27:46;14.20;99.90
46400;DHT22;32104;50.838;4.388;2022-11-15T12:30:00;14.30;99.90
46400;DHT22;32104;50.838;4.388;2022-11-15T12:32:32;13.80;99.90
46400;DHT22;32104;50.838;4.388;2022-11-15T12:35:02;13.90;99.90
46400;DHT22;32104;50.838;4.388;2022-11-15T12:42:41;14.00;99.90
46400;DHT22;32104;50.838;4.388;2022-11-15T12:47:51;14.40;99.90
46400;DHT22;32104;50.838;4.388;2022-11-15T12:50:21;14.30;99.90
46400;DHT22;32104;50.838;4.388;2022-11-15T12:55:57;14.30;99.90
46400;DHT22;32104;50.838;4.388;2022-11-15T13:01:08;14.30;99.90
46400;DHT22;32104;50.838;4.388;2022-11-15T13:03:58;14.40;99.90
46400;DHT22;32104;50.838;4.388;2022-11-15T13:06:37;14.30;99.90
46400;DHT22;32104;50.838;4.388;2022-11-15T13:09:49;14.50;99.90
46400;DHT22;32104;50.838;4.388;2022-11-15T13:11:50;14.40;99.90
46400;DHT22;32104;50.838;4.388;2022-11-15T13:19:46;14.70;99.90
46400;DHT22;32104;50.838;4.388;2022-11-15T13:22:12;14.40;99.90
46400;DHT22;32104;50.838;4.388;2022-11-15T13:24:57;14.20;99.90
46400;DHT22;32104;50.838;4.388;2022-11-15T13:27:24;14.40;99.90
46400;DHT22;32104;50.838;4.388;2022-11-15T13:29:50;14.30;99.90
46400;DHT22;32104;50.838;4.388;2022-11-15T13:32:16;14.20;99.90
46400;DHT22;32104;50.838;4.388;2022-11-15T13:34:48;14.20;99.90
46400;DHT22;32104;50.838;4.388;2022-11-15T13:39:50;14.20;99.90
46400;DHT22;32104;50.838;4.388;2022-11-15T13:42:18;14.40;99.90
46400;DHT22;32104;50.838;4.388;2022-11-15T13:44:57;14.20;99.90
46400;DHT22;32104;50.838;4.388;2022-11-15T13:47:24;14.20;99.90
46400;DHT22;32104;50.838;4.388;2022-11-15T13:49:52;14.10;99.90
46400;DHT22;32104;50.838;4.388;2022-11-15T13:52:18;14.00;99.90
46400;DHT22;32104;50.838;4.388;2022-11-15T13:54:50;14.10;99.90
46400;DHT22;32104;50.838;4.388;2022-11-15T13:57:24;14.10;99.90
46400;DHT22;32104;50.838;4.388;2022-11-15T14:02:17;14.20;99.90
46400;DHT22;32104;50.838;4.388;2022-11-15T14:04:48;14.00;99.90
46400;DHT22;32104;50.838;4.388;2022-11-15T14:07:19;14.20;99.90
46400;DHT22;32104;50.838;4.388;2022-11-15T14:09:45;14.40;99.90
46400;DHT22;32104;50.838;4.388;2022-11-15T14:12:31;14.50;99.90
46400;DHT22;32104;50.838;4.388;2022-11-15T14:14:58;14.50;99.90
46400;DHT22;32104;50.838;4.388;2022-11-15T14:19:56;14.50;99.90
46400;DHT22;32104;50.838;4.388;2022-11-15T14:22:23;14.60;99.90
46400;DHT22;32104;50.838;4.388;2022-11-15T14:28:07;14.20;99.90
46400;DHT22;32104;50.838;4.388;2022-11-15T14:30:30;14.10;99.90
46400;DHT22;32104;50.838;4.388;2022-11-15T14:32:55;14.20;99.90
46400;DHT22;32104;50.838;4.388;2022-11-15T14:35:23;14.30;99.90
46400;DHT22;32104;50.838;4.388;2022-11-15T14:37:49;14.50;99.90
46400;DHT22;32104;50.838;4.388;2022-11-15T14:40:16;14.10;99.90
46400;DHT22;32104;50.838;4.388;2022-11-15T14:42:43;14.00;99.90
46400;DHT22;32104;50.838;4.388;2022-11-15T14:45:12;13.70;99.90
46400;DHT22;32104;50.838;4.388;2022-11-15T14:47:38;13.60;99.90
46400;DHT22;32104;50.838;4.388;2022-11-15T14:50:03;13.80;99.90
46400;DHT22;32104;50.838;4.388;2022-11-15T14:52:30;13.70;99.90
46400;DHT22;32104;50.838;4.388;2022-11-15T14:54:59;13.80;99.90
46400;DHT22;32104;50.838;4.388;2022-11-15T14:57:26;13.70;99.90
46400;DHT22;32104;50.838;4.388;2022-11-15T14:59:52;13.50;99.90
46400;DHT22;32104;50.838;4.388;2022-11-15T15:02:21;13.40;99.90
46400;DHT22;32104;50.838;4.388;2022-11-15T15:04:47;13.30;99.90
46400;DHT22;32104;50.838;4.388;2022-11-15T15:07:13;13.40;99.90
46400;DHT22;32104;50.838;4.388;2022-11-15T15:09:39;13.50;99.90
46400;DHT22;32104;50.838;4.388;2022-11-15T15:12:05;13.50;99.90
46400;DHT22;32104;50.838;4.388;2022-11-15T15:14:37;13.60;99.90
46400;DHT22;32104;50.838;4.388;2022-11-15T15:17:03;13.50;99.90
46400;DHT22;32104;50.838;4.388;2022-11-15T15:19:29;13.30;99.90
46400;DHT22;32104;50.838;4.388;2022-11-15T15:21:56;13.40;99.90
46400;DHT22;32104;50.838;4.388;2022-11-15T15:24:22;13.50;99.90
46400;DHT22;32104;50.838;4.388;2022-11-15T15:26:47;13.50;99.90
46400;DHT22;32104;50.838;4.388;2022-11-15T15:29:13;13.40;99.90
46400;DHT22;32104;50.838;4.388;2022-11-15T15:31:42;13.30;99.90
46400;DHT22;32104;50.838;4.388;2022-11-15T15:34:08;13.20;99.90
46400;DHT22;32104;50.838;4.388;2022-11-15T15:36:33;13.20;99.90
46400;DHT22;32104;50.838;4.388;2022-11-15T15:39:01;13.30;99.90
46400;DHT22;32104;50.838;4.388;2022-11-15T15:41:27;13.50;99.90
46400;DHT22;32104;50.838;4.388;2022-11-15T15:43:53;13.50;99.90
46400;DHT22;32104;50.838;4.388;2022-11-15T15:46:19;13.40;99.90
46400;DHT22;32104;50.838;4.388;2022-11-15T15:48:45;13.20;99.90
46400;DHT22;32104;50.838;4.388;2022-11-15T15:51:11;13.10;99.90
46400;DHT22;32104;50.838;4.388;2022-11-15T15:53:37;13.20;99.90
46400;DHT22;32104;50.838;4.388;2022-11-15T15:56:03;13.20;99.90
46400;DHT22;32104;50.838;4.388;2022-11-15T15:58:28;13.30;99.90
46400;DHT22;32104;50.838;4.388;2022-11-15T16:00:54;13.40;99.90
46400;DHT22;32104;50.838;4.388;2022-11-15T16:03:19;13.20;99.90
46400;DHT22;32104;50.838;4.388;2022-11-15T16:05:45;13.10;99.90
46400;DHT22;32104;50.838;4.388;2022-11-15T16:08:18;13.10;99.90
46400;DHT22;32104;50.838;4.388;2022-11-15T16:10:43;13.20;99.90
46400;DHT22;32104;50.838;4.388;2022-11-15T16:13:09;13.10;99.90
46400;DHT22;32104;50.838;4.388;2022-11-15T16:15:34;12.90;99.90
46400;DHT22;32104;50.838;4.388;2022-11-15T16:18:00;13.00;99.90
46400;DHT22;32104;50.838;4.388;2022-11-15T16:22:58;12.90;99.90
46400;DHT22;32104;50.838;4.388;2022-11-15T16:25:24;12.90;99.90
46400;DHT22;32104;50.838;4.388;2022-11-15T16:27:50;12.80;99.90
46400;DHT22;32104;50.838;4.388;2022-11-15T16:30:17;12.80;99.90
46400;DHT22;32104;50.838;4.388;2022-11-15T16:32:43;12.80;99.90
46400;DHT22;32104;50.838;4.388;2022-11-15T16:35:12;12.80;99.90
46400;DHT22;32104;50.838;4.388;2022-11-15T16:37:38;12.70;99.90
46400;DHT22;32104;50.838;4.388;2022-11-15T16:42:34;13.00;99.90
46400;DHT22;32104;50.838;4.388;2022-11-15T16:45:00;13.00;99.90
46400;DHT22;32104;50.838;4.388;2022-11-15T16:47:25;13.10;99.90
46400;DHT22;32104;50.838;4.388;2022-11-15T16:49:51;12.80;99.90
46400;DHT22;32104;50.838;4.388;2022-11-15T16:52:17;12.80;99.90
46400;DHT22;32104;50.838;4.388;2022-11-15T16:54:42;12.70;99.90
46400;DHT22;32104;50.838;4.388;2022-11-15T16:57:09;12.80;99.90
46400;DHT22;32104;50.838;4.388;2022-11-15T16:59:35;13.00;99.90
46400;DHT22;32104;50.838;4.388;2022-11-15T17:02:00;13.00;99.90
46400;DHT22;32104;50.838;4.388;2022-11-15T17:04:26;13.10;99.90
46400;DHT22;32104;50.838;4.388;2022-11-15T17:06:57;13.10;99.90
46400;DHT22;32104;50.838;4.388;2022-11-15T17:09:22;13.10;99.90
46400;DHT22;32104;50.838;4.388;2022-11-15T17:11:49;13.10;99.90
46400;DHT22;32104;50.838;4.388;2022-11-15T17:14:14;12.80;99.90
46400;DHT22;32104;50.838;4.388;2022-11-15T17:16:40;12.60;99.90
46400;DHT22;32104;50.838;4.388;2022-11-15T17:19:15;12.80;99.90
46400;DHT22;32104;50.838;4.388;2022-11-15T17:21:41;13.00;99.90
46400;DHT22;32104;50.838;4.388;2022-11-15T17:24:07;13.30;99.90
46400;DHT22;32104;50.838;4.388;2022-11-15T17:26:32;13.20;99.90
46400;DHT22;32104;50.838;4.388;2022-11-15T17:28:58;13.10;99.90
46400;DHT22;32104;50.838;4.388;2022-11-15T17:31:25;13.20;99.90
46400;DHT22;32104;50.838;4.388;2022-11-15T17:33:51;13.30;99.90
46400;DHT22;32104;50.838;4.388;2022-11-15T17:36:16;13.10;99.90
46400;DHT22;32104;50.838;4.388;2022-11-15T17:38:42;13.10;99.90
46400;DHT22;32104;50.838;4.388;2022-11-15T17:41:12;13.20;99.90
46400;DHT22;32104;50.838;4.388;2022-11-15T17:43:39;13.00;99.90
46400;DHT22;32104;50.838;4.388;2022-11-15T17:46:06;13.00;99.90